Time;durP1;ratioP1;P1;durP2;ratioP2;P2;SDS_P1;SDS_P2;PMS_P1;PMS_P2;Temp;Humidity;BMP_temperature;BMP_pressure;BME280_temperature;BME280_humidity;BME280_pressure;Samples;Min_cycle;Max_cycle;Signal;HPM_P1;HPM_P2
2020/12/21 00:01:45;;;;;;;13.27;4.53;;;25.10;58.10;;;;;;6366061;22;20026;-72
2020/12/21 00:04:13;;;;;;;15.50;6.28;;;25.10;58.20;;;;;;6364457;22;20013;-73
2020/12/21 00:06:39;;;;;;;10.30;4.43;;;25.10;58.30;;;;;;6364338;22;20001;-72
2020/12/21 00:09:06;;;;;;;11.07;4.63;;;25.10;58.40;;;;;;6365529;22;20004;-73
2020/12/21 00:11:38;;;;;;;9.05;4.13;;;25.10;58.40;;;;;;6336350;22;20035;-72
2020/12/21 00:14:06;;;;;;;13.50;4.85;;;25.10;58.40;;;;;;6365362;22;20017;-73
2020/12/21 00:16:37;;;;;;;10.60;3.28;;;25.10;58.40;;;;;;6365150;22;20438;-73
2020/12/21 00:19:04;;;;;;;12.13;3.95;;;25.10;58.50;;;;;;6365529;22;20002;-73
2020/12/21 00:21:30;;;;;;;14.30;3.80;;;25.00;58.40;;;;;;6365427;22;20102;-73
2020/12/21 00:23:58;;;;;;;8.10;3.08;;;25.00;58.50;;;;;;6364858;22;20409;-73
2020/12/21 00:26:25;;;;;;;13.77;4.32;;;25.00;58.40;;;;;;6365574;22;20366;-73
2020/12/21 00:28:51;;;;;;;12.60;3.70;;;25.00;58.40;;;;;;6364314;22;20070;-73
2020/12/21 00:31:25;;;;;;;12.73;5.60;;;25.00;58.40;;;;;;6365507;22;20422;-73
2020/12/21 00:33:52;;;;;;;10.88;3.65;;;25.00;58.40;;;;;;6363787;22;20018;-73
2020/12/21 00:36:19;;;;;;;8.55;2.88;;;25.00;58.40;;;;;;6365724;22;20055;-73
2020/12/21 00:38:46;;;;;;;9.20;3.55;;;25.00;58.40;;;;;;6365166;22;19998;-73
2020/12/21 00:41:17;;;;;;;12.57;4.68;;;24.90;58.40;;;;;;6364334;22;20422;-73
2020/12/21 00:43:47;;;;;;;11.45;3.78;;;24.90;58.50;;;;;;6365610;22;20571;-73
2020/12/21 00:46:18;;;;;;;10.07;2.97;;;25.00;58.60;;;;;;6364333;22;20487;-73
2020/12/21 00:48:45;;;;;;;12.02;4.90;;;24.90;58.60;;;;;;6364635;22;20076;-72
2020/12/21 00:51:15;;;;;;;11.95;2.85;;;24.90;58.70;;;;;;6364140;22;20097;-73
2020/12/21 00:53:43;;;;;;;7.03;3.30;;;24.90;58.80;;;;;;6364782;22;20013;-72
2020/12/21 00:56:10;;;;;;;11.05;4.57;;;24.90;58.90;;;;;;6365212;22;19998;-73
2020/12/21 00:58:38;;;;;;;10.82;3.05;;;24.90;58.90;;;;;;6364594;22;20070;-72
2020/12/21 01:01:09;;;;;;;10.45;4.40;;;24.90;59.00;;;;;;6364833;22;19994;-72
2020/12/21 01:03:36;;;;;;;11.02;3.50;;;24.80;58.90;;;;;;6335726;22;20002;-73
2020/12/21 01:06:06;;;;;;;11.30;3.53;;;24.90;59.00;;;;;;6366008;22;20005;-73
2020/12/21 01:08:34;;;;;;;10.00;4.03;;;24.80;58.80;;;;;;6366453;22;20030;-72
2020/12/21 01:11:00;;;;;;;12.30;3.55;;;24.80;58.80;;;;;;6367215;22;20048;-71
2020/12/21 01:13:27;;;;;;;13.68;4.38;;;24.80;58.90;;;;;;6367894;22;20010;-72
2020/12/21 01:15:53;;;;;;;13.85;7.05;;;24.80;59.50;;;;;;6366256;22;19998;-75
2020/12/21 01:18:20;;;;;;;13.57;6.90;;;24.80;58.90;;;;;;6367573;22;20397;-73
2020/12/21 01:20:46;;;;;;;11.60;5.43;;;24.70;58.90;;;;;;6366015;22;20075;-72
2020/12/21 01:23:13;;;;;;;18.15;5.32;;;24.70;59.60;;;;;;6339009;22;20013;-73
2020/12/21 01:25:39;;;;;;;11.65;4.20;;;24.70;59.00;;;;;;6364950;22;20063;-73
2020/12/21 01:28:06;;;;;;;14.73;4.43;;;24.70;59.00;;;;;;6367356;22;20408;-72
2020/12/21 01:30:32;;;;;;;13.35;4.10;;;24.70;59.10;;;;;;6366780;22;20409;-74
2020/12/21 01:32:59;;;;;;;11.40;3.40;;;24.70;59.10;;;;;;6366346;22;20043;-73
2020/12/21 01:35:25;;;;;;;13.55;4.00;;;24.70;59.20;;;;;;6367065;22;20005;-73
2020/12/21 01:37:52;;;;;;;9.10;3.03;;;24.70;59.20;;;;;;6365726;22;20028;-73
2020/12/21 01:40:18;;;;;;;9.68;3.90;;;24.70;59.30;;;;;;6367332;22;20002;-73
2020/12/21 01:42:45;;;;;;;10.32;3.28;;;24.60;59.20;;;;;;6366308;22;20287;-73
2020/12/21 01:45:11;;;;;;;12.90;3.45;;;24.70;59.30;;;;;;6367271;22;20009;-72
2020/12/21 01:47:38;;;;;;;9.23;3.42;;;24.60;59.30;;;;;;6366696;22;20077;-73
2020/12/21 01:50:06;;;;;;;14.05;3.80;;;24.60;59.30;;;;;;6366718;22;20484;-72
2020/12/21 01:52:33;;;;;;;15.07;5.28;;;24.60;59.40;;;;;;6366150;22;20013;-72
2020/12/21 01:55:01;;;;;;;17.63;11.88;;;24.60;59.50;;;;;;6366182;22;20086;-73
2020/12/21 01:57:28;;;;;;;21.13;14.63;;;24.60;59.60;;;;;;6367362;22;20026;-72
2020/12/21 01:59:54;;;;;;;16.70;9.23;;;24.60;59.70;;;;;;6338134;22;20002;-72
2020/12/21 02:03:00;;;;;;;13.10;7.03;;;24.60;59.70;;;;;;6362649;22;20001;-73
2020/12/21 02:05:46;;;;;;;;;;;24.60;59.80;;;;;;6367493;22;20149;-72
2020/12/21 02:08:52;;;;;;;12.32;4.50;;;24.60;59.90;;;;;;6365440;22;19902;-73
2020/12/21 02:11:38;;;;;;;;;;;24.50;59.90;;;;;;6367286;22;20002;-73
2020/12/21 02:14:44;;;;;;;18.73;4.63;;;24.50;60.10;;;;;;6367090;22;19906;-73
2020/12/21 02:17:53;;;;;;;12.57;3.58;;;24.50;60.00;;;;;;6364331;22;19995;-72
2020/12/21 02:20:59;;;;;;;10.43;3.13;;;24.50;60.00;;;;;;6366363;22;20441;-73
2020/12/21 02:23:44;;;;;;;;;;;24.50;60.00;;;;;;6366942;22;20002;-72
2020/12/21 02:26:51;;;;;;;14.05;3.75;;;24.40;59.90;;;;;;6364385;22;19898;-73
2020/12/21 02:29:36;;;;;;;;;;;24.50;60.00;;;;;;6365540;22;20002;-73
2020/12/21 02:32:42;;;;;;;12.35;3.05;;;24.50;60.00;;;;;;6366460;22;19929;-72
2020/12/21 02:35:49;;;;;;;8.50;4.00;;;24.50;60.10;;;;;;6366125;22;20088;-73
2020/12/21 02:38:55;;;;;;;9.05;3.35;;;24.40;60.10;;;;;;6365039;22;20037;-73
2020/12/21 02:42:01;;;;;;;11.50;3.00;;;24.40;60.20;;;;;;6338790;22;20002;-72
2020/12/21 02:44:47;;;;;;;;;;;24.40;60.30;;;;;;6366723;22;20002;-73
2020/12/21 02:47:53;;;;;;;10.15;3.10;;;24.40;60.50;;;;;;6365660;22;19898;-73
2020/12/21 02:50:39;;;;;;;;;;;24.40;60.60;;;;;;6338581;22;20377;-73
2020/12/21 02:53:45;;;;;;;11.77;4.28;;;24.40;60.90;;;;;;6366147;22;19911;-73
2020/12/21 02:56:30;;;;;;;;;;;24.30;61.00;;;;;;6365303;22;19995;-73
2020/12/21 02:59:37;;;;;;;14.32;4.43;;;24.30;61.10;;;;;;6366142;22;19959;-73
2020/12/21 03:02:23;;;;;;;;;;;24.30;61.20;;;;;;6367733;22;20021;-73
2020/12/21 03:05:29;;;;;;;13.93;3.33;;;24.30;61.20;;;;;;6365689;22;19902;-73
2020/12/21 03:08:35;;;;;;;12.82;5.50;;;24.30;61.30;;;;;;6364969;22;20369;-72
2020/12/21 03:11:41;;;;;;;14.05;5.97;;;24.30;61.40;;;;;;6366850;22;20004;-73
2020/12/21 03:14:47;;;;;;;12.55;4.30;;;24.30;61.50;;;;;;6365315;22;20037;-73
2020/12/21 03:17:53;;;;;;;12.52;5.85;;;24.30;61.50;;;;;;6365079;22;19998;-72
2020/12/21 03:20:39;;;;;;;;;;;24.30;61.60;;;;;;6367162;22;20054;-72
2020/12/21 03:23:45;;;;;;;11.35;3.83;;;24.20;61.60;;;;;;6365985;22;19902;-72
2020/12/21 03:26:51;;;;;;;11.52;3.88;;;24.20;61.70;;;;;;6365249;22;20327;-73
2020/12/21 03:29:17;;;;;;;;;;;24.20;61.80;;;;;;6366547;22;20029;-72
2020/12/21 03:31:44;;;;;;;11.90;3.80;;;24.20;61.90;;;;;;6365583;22;19898;-72
2020/12/21 03:34:13;;;;;;;12.13;3.17;;;24.20;62.00;;;;;;6363613;22;20014;-72
2020/12/21 03:36:46;;;;;;;11.80;3.25;;;24.20;62.10;;;;;;6365961;22;20310;-72
2020/12/21 03:39:13;;;;;;;9.35;2.67;;;24.20;62.10;;;;;;6364258;22;20002;-72
2020/12/21 03:41:40;;;;;;;10.25;3.20;;;24.20;62.10;;;;;;6366240;22;19998;-72
2020/12/21 03:44:06;;;;;;;6.93;3.22;;;24.10;62.10;;;;;;6363772;22;20002;-72
2020/12/21 03:46:33;;;;;;;23.20;5.25;;;24.10;62.10;;;;;;6337900;22;20449;-72
2020/12/21 03:48:59;;;;;;;9.02;3.83;;;24.10;62.10;;;;;;6365672;22;20007;-72
2020/12/21 03:51:26;;;;;;;8.40;2.92;;;24.20;62.10;;;;;;6336760;22;20395;-72
2020/12/21 03:53:52;;;;;;;14.40;4.30;;;24.20;62.10;;;;;;6365739;22;20010;-72
2020/12/21 03:56:19;;;;;;;14.73;5.90;;;24.20;62.20;;;;;;6364025;22;20120;-73
2020/12/21 03:58:45;;;;;;;11.65;5.55;;;24.10;62.10;;;;;;6365553;22;20413;-72
2020/12/21 04:01:12;;;;;;;12.38;5.82;;;24.10;62.10;;;;;;6364504;22;20002;-73
2020/12/21 04:03:38;;;;;;;11.40;4.47;;;24.10;62.20;;;;;;6365501;22;19994;-73
2020/12/21 04:06:05;;;;;;;9.48;3.80;;;24.10;62.20;;;;;;6363966;22;20002;-73
2020/12/21 04:08:31;;;;;;;12.35;4.75;;;24.10;62.30;;;;;;6365735;22;20005;-75
2020/12/21 04:11:00;;;;;;;10.90;3.20;;;24.10;62.30;;;;;;6365503;22;19999;-73
2020/12/21 04:13:27;;;;;;;8.50;3.53;;;24.10;62.40;;;;;;6363582;22;20056;-73
2020/12/21 04:15:54;;;;;;;9.25;3.83;;;24.10;62.50;;;;;;6365943;22;19994;-74
2020/12/21 04:18:20;;;;;;;14.45;5.35;;;24.10;62.60;;;;;;6363088;22;20054;-73
2020/12/21 04:20:47;;;;;;;12.55;4.53;;;24.10;62.70;;;;;;6365008;22;19998;-74
2020/12/21 04:23:14;;;;;;;10.25;4.18;;;24.10;62.70;;;;;;6364761;22;20002;-73
2020/12/21 04:25:41;;;;;;;7.38;4.18;;;24.10;62.70;;;;;;6365105;22;20001;-73
2020/12/21 04:28:09;;;;;;;15.40;4.10;;;24.10;62.70;;;;;;6365661;22;20360;-73
2020/12/21 04:30:36;;;;;;;9.30;5.53;;;24.10;62.80;;;;;;6363485;22;20429;-72
2020/12/21 04:33:02;;;;;;;13.50;5.57;;;24.10;62.80;;;;;;6365839;22;20422;-73
2020/12/21 04:35:29;;;;;;;13.18;4.97;;;24.10;62.90;;;;;;6364205;22;19994;-72
2020/12/21 04:37:55;;;;;;;9.23;3.75;;;24.10;62.90;;;;;;6364998;22;20422;-74
2020/12/21 04:40:23;;;;;;;14.00;5.68;;;24.10;63.00;;;;;;6364673;22;20021;-74
2020/12/21 04:42:53;;;;;;;15.48;3.72;;;24.10;63.10;;;;;;6367517;22;20009;-75
2020/12/21 04:45:23;;;;;;;10.20;3.75;;;24.10;63.20;;;;;;6366975;22;19994;-73
2020/12/21 04:47:50;;;;;;;12.25;4.07;;;24.10;63.30;;;;;;6366298;22;20325;-72
2020/12/21 04:50:17;;;;;;;17.70;4.18;;;24.10;63.30;;;;;;6368391;22;20255;-72
2020/12/21 04:52:51;;;;;;;16.35;4.80;;;24.10;63.30;;;;;;6365744;22;20010;-72
2020/12/21 04:55:20;;;;;;;11.27;4.23;;;24.10;63.40;;;;;;6368378;22;20002;-72
2020/12/21 04:58:00;;;;;;;16.35;6.18;;;24.10;63.40;;;;;;6366660;22;20006;-73
2020/12/21 05:00:29;;;;;;;14.95;3.63;;;24.10;63.50;;;;;;6366623;22;20006;-72
2020/12/21 05:02:56;;;;;;;15.65;3.85;;;24.10;63.50;;;;;;6339464;22;20010;-72
2020/12/21 05:05:37;;;;;;;8.63;3.63;;;24.10;63.60;;;;;;6366322;22;20364;-71
2020/12/21 05:08:21;;;;;;;12.00;4.90;;;24.10;64.30;;;;;;6367094;22;20034;-71
2020/12/21 05:11:04;;;;;;;11.85;3.20;;;24.10;63.70;;;;;;6337637;22;20017;-71
2020/12/21 05:14:10;;;;;;;11.52;3.45;;;24.20;63.80;;;;;;6367222;22;20414;-72
2020/12/21 05:16:56;;;;;;;;;;;24.20;63.90;;;;;;6368197;22;20070;-71
2020/12/21 05:20:02;;;;;;;8.90;2.65;;;24.20;63.90;;;;;;6367171;22;19904;-70
2020/12/21 05:22:48;;;;;;;;;;;24.20;63.70;;;;;;6367084;22;20009;-74
2020/12/21 05:25:54;;;;;;;21.10;5.45;;;24.20;63.70;;;;;;6339089;22;19898;-75
2020/12/21 05:29:00;;;;;;;11.85;4.55;;;24.30;63.80;;;;;;6366919;22;19999;-73
2020/12/21 05:32:10;;;;;;;15.93;4.63;;;24.30;63.80;;;;;;6366382;22;20483;-71
2020/12/21 05:35:24;;;;;;;14.57;4.05;;;24.30;63.80;;;;;;6362993;22;20089;-70
2020/12/21 05:38:43;;;;;;;12.00;3.83;;;24.30;63.80;;;;;;6366645;22;20047;-70
2020/12/21 05:41:49;;;;;;;10.20;3.45;;;24.40;63.80;;;;;;6365607;22;20029;-70
2020/12/21 05:44:35;;;;;;;;;;;24.40;63.70;;;;;;6334239;22;20078;-70
2020/12/21 05:47:41;;;;;;;11.73;3.55;;;24.40;63.50;;;;;;6365598;22;20147;-70
2020/12/21 05:50:47;;;;;;;10.23;2.92;;;24.50;63.40;;;;;;6366544;22;20025;-69
2020/12/21 05:53:33;;;;;;;;;;;24.50;63.30;;;;;;6365563;22;20376;-71
2020/12/21 05:56:39;;;;;;;8.80;3.30;;;24.60;63.30;;;;;;6366935;22;20287;-71
2020/12/21 05:59:25;;;;;;;;;;;24.60;63.20;;;;;;6367406;22;20037;-72
2020/12/21 06:02:31;;;;;;;13.60;3.72;;;24.70;63.10;;;;;;6365141;22;20340;-70
2020/12/21 06:05:40;;;;;;;9.93;3.53;;;24.70;63.00;;;;;;6366679;22;20006;-70
2020/12/21 06:08:47;;;;;;;13.07;3.70;;;24.70;62.90;;;;;;6365087;22;20006;-71
2020/12/21 06:11:39;;;;;;;;;;;24.80;62.90;;;;;;6365355;22;20417;-72
2020/12/21 06:14:25;;;;;;;9.43;2.85;;;24.80;62.80;;;;;;6360062;22;20249;-71
2020/12/21 06:17:31;;;;;;;10.10;2.45;;;24.80;62.60;;;;;;6366882;22;20013;-73
2020/12/21 06:20:20;;;;;;;;;;;24.90;62.30;;;;;;6337997;22;20006;-71
2020/12/21 06:23:26;;;;;;;8.73;3.20;;;24.90;62.20;;;;;;6365940;22;19982;-71
2020/12/21 06:26:12;;;;;;;;;;;25.00;62.00;;;;;;6367253;22;20358;-71
2020/12/21 06:29:18;;;;;;;7.45;4.03;;;25.00;62.00;;;;;;6365323;22;19902;-71
2020/12/21 06:32:04;;;;;;;;;;;25.00;61.90;;;;;;6365994;22;20013;-70
2020/12/21 06:34:50;;;;;;;12.65;2.88;;;25.10;61.90;;;;;;6366414;22;19910;-71
2020/12/21 06:37:56;;;;;;;7.53;2.92;;;25.10;61.90;;;;;;6365384;22;20442;-70
2020/12/21 06:40:42;;;;;;;;;;;25.10;61.80;;;;;;6366108;22;20043;-70
2020/12/21 06:43:48;;;;;;;9.25;3.05;;;25.20;61.90;;;;;;6365099;22;19898;-71
2020/12/21 06:46:54;;;;;;;12.00;4.72;;;25.20;61.70;;;;;;6366248;22;20051;-71
2020/12/21 06:49:40;;;;;;;;;;;25.30;61.70;;;;;;6365814;22;20009;-71
2020/12/21 06:52:46;;;;;;;14.60;2.85;;;25.30;61.50;;;;;;6366180;22;20530;-71
2020/12/21 06:55:32;;;;;;;;;;;25.40;61.40;;;;;;6367083;22;20013;-70
2020/12/21 06:58:38;;;;;;;7.63;3.03;;;25.40;61.30;;;;;;6365044;22;19977;-71
2020/12/21 07:01:24;;;;;;;;;;;25.40;61.20;;;;;;6366630;22;20022;-70
2020/12/21 07:04:30;;;;;;;12.55;3.35;;;25.50;61.20;;;;;;6365335;22;19963;-71
2020/12/21 07:07:36;;;;;;;8.48;3.60;;;25.50;61.80;;;;;;6363997;22;20005;-71
2020/12/21 07:10:22;;;;;;;;;;;25.50;61.10;;;;;;6339080;22;20416;-71
2020/12/21 07:13:28;;;;;;;10.25;2.13;;;25.60;61.10;;;;;;6366487;22;20018;-71
2020/12/21 07:16:14;;;;;;;;;;;25.60;60.80;;;;;;6364715;22;20025;-73
2020/12/21 07:19:20;;;;;;;13.90;3.15;;;25.70;60.90;;;;;;6365926;22;19906;-71
2020/12/21 07:22:26;;;;;;;14.68;4.00;;;25.80;60.50;;;;;;6365902;22;20005;-73
2020/12/21 07:25:12;;;;;;;;;;;25.80;60.20;;;;;;6365718;22;20094;-72
2020/12/21 07:28:18;;;;;;;9.40;3.20;;;25.80;60.00;;;;;;6365648;22;19898;-73
2020/12/21 07:31:04;;;;;;;;;;;25.90;60.00;;;;;;6366747;22;20445;-71
2020/12/21 07:33:50;;;;;;;;;;;25.90;60.00;;;;;;6337154;22;20218;-71
2020/12/21 07:36:56;;;;;;;7.75;3.05;;;25.90;60.00;;;;;;6365357;22;19898;-73
2020/12/21 07:39:42;;;;;;;;;;;25.90;59.90;;;;;;6367228;22;20002;-73
2020/12/21 07:42:48;;;;;;;6.85;2.40;;;26.00;59.90;;;;;;6336937;22;20277;-73
2020/12/21 07:45:34;;;;;;;;;;;26.10;59.90;;;;;;6364999;22;20003;-73
2020/12/21 07:48:40;;;;;;;11.60;3.20;;;26.10;59.90;;;;;;6366122;22;19902;-72
2020/12/21 07:51:46;;;;;;;6.32;2.25;;;26.20;59.70;;;;;;6333951;22;20014;-72
2020/12/21 07:54:52;;;;;;;4.93;1.98;;;26.30;59.60;;;;;;6364614;22;20006;-72
2020/12/21 07:57:38;;;;;;;;;;;26.30;59.60;;;;;;6363777;22;20025;-73
2020/12/21 08:00:44;;;;;;;11.23;2.22;;;26.30;59.60;;;;;;6365364;22;19902;-73
2020/12/21 08:03:30;;;;;;;;;;;26.40;59.70;;;;;;6365469;22;19998;-72
2020/12/21 08:06:35;;;;;;;;;;;26.40;59.60;;;;;;6364824;22;19907;-74
2020/12/21 08:09:41;;;;;;;10.75;2.28;;;26.50;59.80;;;;;;6365842;22;19908;-74
2020/12/21 08:12:27;;;;;;;;;;;26.60;59.70;;;;;;6363473;22;20021;-73
2020/12/21 08:15:39;;;;;;;8.38;2.83;;;26.60;59.70;;;;;;6365356;22;19910;-73
2020/12/21 08:18:47;;;;;;;11.02;4.00;;;26.60;59.60;;;;;;6365760;22;20003;-73
2020/12/21 08:21:53;;;;;;;12.50;1.88;;;26.70;59.60;;;;;;6364204;22;20002;-71
2020/12/21 08:24:59;;;;;;;8.02;2.88;;;26.70;59.60;;;;;;6364632;22;20322;-74
2020/12/21 08:28:05;;;;;;;9.07;2.08;;;26.70;59.50;;;;;;6365627;22;20005;-74
2020/12/21 08:31:12;;;;;;;3.90;1.80;;;26.80;59.50;;;;;;6364756;22;20006;-73
2020/12/21 08:34:18;;;;;;;9.90;2.08;;;26.90;59.40;;;;;;6362521;22;20346;-72
2020/12/21 08:37:24;;;;;;;8.60;2.00;;;26.90;59.30;;;;;;6364658;22;19995;-74
2020/12/21 08:40:36;;;;;;;7.95;2.08;;;27.00;59.10;;;;;;6366037;22;20325;-72
2020/12/21 08:43:42;;;;;;;5.03;1.65;;;27.00;58.90;;;;;;6365465;22;20142;-74
2020/12/21 08:46:48;;;;;;;7.75;4.03;;;27.10;58.70;;;;;;6364197;22;20077;-73
2020/12/21 08:49:54;;;;;;;5.25;1.15;;;27.10;58.60;;;;;;6366173;22;20078;-72
2020/12/21 08:53:00;;;;;;;6.90;1.40;;;27.20;58.50;;;;;;6365354;22;20014;-71
2020/12/21 08:56:06;;;;;;;5.30;2.58;;;27.20;58.40;;;;;;6363806;22;20056;-74
2020/12/21 08:59:12;;;;;;;9.57;2.15;;;27.30;58.20;;;;;;6365094;22;20465;-74
2020/12/21 09:02:21;;;;;;;5.13;1.27;;;27.40;58.10;;;;;;6365530;22;20081;-73
2020/12/21 09:05:27;;;;;;;10.15;2.15;;;27.40;57.70;;;;;;6365103;22;20056;-71
2020/12/21 09:08:33;;;;;;;7.03;1.52;;;27.50;57.70;;;;;;6363647;22;20022;-71
2020/12/21 09:11:39;;;;;;;11.82;2.13;;;27.60;57.60;;;;;;6365651;22;20425;-71
2020/12/21 09:14:45;;;;;;;8.07;2.97;;;27.60;57.40;;;;;;6337945;22;20015;-72
2020/12/21 09:17:51;;;;;;;6.45;2.50;;;27.70;57.50;;;;;;6364168;22;20005;-71
2020/12/21 09:20:57;;;;;;;3.13;1.88;;;27.70;57.50;;;;;;6336278;22;20333;-71
2020/12/21 09:24:03;;;;;;;3.38;1.73;;;27.70;57.40;;;;;;6364992;22;20073;-73
2020/12/21 09:27:09;;;;;;;4.95;1.67;;;27.60;57.50;;;;;;6364665;22;19998;-73
2020/12/21 09:30:15;;;;;;;6.55;1.88;;;27.60;57.70;;;;;;6365295;22;20002;-72
2020/12/21 09:33:21;;;;;;;15.07;3.42;;;27.60;57.90;;;;;;6366333;22;20510;-73
2020/12/21 09:36:32;;;;;;;9.43;2.40;;;27.50;57.80;;;;;;6364062;22;20002;-73
2020/12/21 09:39:38;;;;;;;6.38;1.60;;;27.50;57.90;;;;;;6365164;22;20002;-73
2020/12/21 09:42:45;;;;;;;9.48;1.95;;;27.50;57.80;;;;;;6365587;22;20005;-73
2020/12/21 09:45:51;;;;;;;6.57;1.55;;;27.60;57.80;;;;;;6364032;22;19998;-74
2020/12/21 09:49:03;;;;;;;3.03;1.60;;;27.70;57.60;;;;;;6366137;22;19994;-72
2020/12/21 09:52:09;;;;;;;6.15;1.60;;;27.70;57.60;;;;;;6365170;22;20473;-73
2020/12/21 09:55:15;;;;;;;4.72;1.83;;;27.70;57.60;;;;;;6365595;22;20018;-74
2020/12/21 09:58:21;;;;;;;5.03;1.77;;;27.80;57.50;;;;;;6366596;22;19994;-75
2020/12/21 10:01:28;;;;;;;4.57;1.38;;;27.90;57.50;;;;;;6365809;22;20495;-72
2020/12/21 10:04:34;;;;;;;4.13;1.20;;;28.00;57.30;;;;;;6364510;22;20007;-72
2020/12/21 10:07:41;;;;;;;8.40;2.92;;;28.20;57.00;;;;;;6366729;22;20326;-71
2020/12/21 10:10:47;;;;;;;4.88;1.52;;;28.30;56.70;;;;;;6366422;22;20010;-72
2020/12/21 10:13:54;;;;;;;8.55;1.60;;;28.40;56.60;;;;;;6364914;22;20445;-72
2020/12/21 10:17:00;;;;;;;7.20;2.45;;;28.40;56.40;;;;;;6365494;22;20006;-72
2020/12/21 10:20:06;;;;;;;8.13;1.83;;;28.40;56.30;;;;;;6366409;22;20299;-74
2020/12/21 10:22:51;;;;;;;3.85;1.30;;;28.40;56.10;;;;;;6364852;22;20136;-73
2020/12/21 10:25:17;;;;;;;3.97;1.37;;;28.40;56.00;;;;;;6364820;22;19994;-73
2020/12/21 10:27:44;;;;;;;8.63;1.90;;;28.40;56.00;;;;;;6365686;22;19994;-73
2020/12/21 10:30:10;;;;;;;7.40;4.15;;;28.50;55.90;;;;;;6364214;22;20120;-74
2020/12/21 10:32:37;;;;;;;10.98;5.00;;;28.50;55.90;;;;;;6365045;22;20001;-73
2020/12/21 10:35:04;;;;;;;6.22;2.83;;;28.50;55.90;;;;;;6363196;22;20426;-74
2020/12/21 10:37:40;;;;;;;5.30;2.72;;;28.50;55.70;;;;;;6365765;22;20044;-73
2020/12/21 10:40:07;;;;;;;4.82;1.88;;;28.50;55.60;;;;;;6366104;22;20012;-73
2020/12/21 10:42:34;;;;;;;8.02;2.17;;;28.60;55.60;;;;;;6366038;22;20006;-75
2020/12/21 10:45:01;;;;;;;8.45;1.67;;;28.50;55.50;;;;;;6364264;22;20055;-74
2020/12/21 10:47:30;;;;;;;8.25;1.95;;;28.60;55.50;;;;;;6364778;22;20006;-74
2020/12/21 10:49:57;;;;;;;4.95;1.60;;;28.60;55.40;;;;;;6366454;22;20010;-74
2020/12/21 10:52:23;;;;;;;4.15;1.48;;;28.60;55.30;;;;;;6365103;22;20013;-74
2020/12/21 10:54:50;;;;;;;3.55;1.70;;;28.70;55.20;;;;;;6365930;22;20084;-75
2020/12/21 10:57:16;;;;;;;3.83;1.48;;;28.70;55.10;;;;;;6364104;22;20311;-74
2020/12/21 10:59:43;;;;;;;8.07;1.63;;;28.70;55.20;;;;;;6361969;22;20002;-74
2020/12/21 11:02:11;;;;;;;11.23;2.00;;;28.70;55.20;;;;;;6362174;22;20059;-75
2020/12/21 11:04:38;;;;;;;13.38;2.47;;;28.70;55.20;;;;;;6360386;22;19998;-75
2020/12/21 11:07:04;;;;;;;9.63;1.80;;;28.70;55.20;;;;;;6364075;22;20048;-76
2020/12/21 11:09:31;;;;;;;7.43;2.25;;;28.70;55.20;;;;;;6363987;22;20449;-75
2020/12/21 11:11:58;;;;;;;7.22;1.48;;;28.70;55.10;;;;;;6365830;22;20801;-76
2020/12/21 11:14:25;;;;;;;8.95;1.98;;;28.70;55.00;;;;;;6335891;22;20132;-77
2020/12/21 11:16:52;;;;;;;5.22;1.15;;;28.70;54.90;;;;;;6365826;22;20005;-76
2020/12/21 11:19:19;;;;;;;13.45;10.65;;;28.80;54.80;;;;;;6366063;22;19995;-74
2020/12/21 11:21:47;;;;;;;7.70;3.80;;;28.80;54.80;;;;;;6364636;22;20470;-74
2020/12/21 11:24:16;;;;;;;7.68;3.15;;;28.80;54.90;;;;;;6365633;22;20009;-74
2020/12/21 11:26:44;;;;;;;6.40;2.45;;;28.90;54.80;;;;;;6364907;22;20077;-74
2020/12/21 11:29:12;;;;;;;6.82;2.38;;;28.90;54.80;;;;;;6365962;22;20317;-74
2020/12/21 11:31:39;;;;;;;8.25;2.17;;;29.00;54.60;;;;;;6364828;22;20030;-74
2020/12/21 11:34:08;;;;;;;14.55;1.92;;;29.10;54.40;;;;;;6365979;22;20426;-74
2020/12/21 11:36:34;;;;;;;7.43;3.63;;;29.10;54.30;;;;;;6365715;22;20006;-74
2020/12/21 11:39:01;;;;;;;4.40;2.15;;;29.10;54.20;;;;;;6365122;22;20317;-74
2020/12/21 11:41:31;;;;;;;5.93;2.60;;;29.10;54.00;;;;;;6365897;22;20003;-75
2020/12/21 11:43:58;;;;;;;7.15;2.53;;;29.20;53.80;;;;;;6364459;22;20037;-75
2020/12/21 11:46:33;;;;;;;6.03;1.70;;;29.20;53.80;;;;;;6366442;22;20051;-74
2020/12/21 11:49:00;;;;;;;4.68;1.55;;;29.30;53.70;;;;;;6364572;22;20063;-76
2020/12/21 11:51:27;;;;;;;4.07;1.50;;;29.30;53.70;;;;;;6365154;22;20342;-75
2020/12/21 11:53:54;;;;;;;7.95;2.33;;;29.30;53.70;;;;;;6365061;22;20093;-73
2020/12/21 11:57:00;;;;;;;7.15;1.52;;;29.30;53.50;;;;;;6364409;22;20322;-73
2020/12/21 11:59:27;;;;;;;9.55;1.60;;;29.30;53.50;;;;;;6366235;22;20001;-73
2020/12/21 12:02:00;;;;;;;6.13;1.50;;;29.30;53.40;;;;;;6363281;22;20343;-73
2020/12/21 12:04:28;;;;;;;5.05;1.30;;;29.40;53.40;;;;;;6365146;22;20338;-73
2020/12/21 12:06:54;;;;;;;3.10;1.52;;;29.50;53.30;;;;;;6365720;22;19998;-73
2020/12/21 12:09:25;;;;;;;6.07;1.25;;;29.60;53.00;;;;;;6364640;22;20002;-75
2020/12/21 12:11:56;;;;;;;2.85;1.15;;;29.60;52.90;;;;;;6365892;22;20002;-74
2020/12/21 12:14:23;;;;;;;3.63;1.33;;;29.60;52.70;;;;;;6361894;22;20003;-74
2020/12/21 12:16:50;;;;;;;4.78;1.52;;;29.60;52.80;;;;;;6364274;22;20490;-74
2020/12/21 12:19:22;;;;;;;4.68;1.50;;;29.60;53.50;;;;;;6336454;22;20299;-73
2020/12/21 12:21:49;;;;;;;22.38;3.25;;;29.60;52.80;;;;;;6365262;22;20482;-75
2020/12/21 12:24:16;;;;;;;12.55;1.63;;;29.50;52.90;;;;;;6365702;22;20074;-74
2020/12/21 12:26:42;;;;;;;4.03;1.77;;;29.50;53.00;;;;;;6364352;22;20001;-74
2020/12/21 12:29:09;;;;;;;9.43;2.95;;;29.40;53.00;;;;;;6365710;22;20020;-75
2020/12/21 12:31:35;;;;;;;5.03;2.58;;;29.40;53.10;;;;;;6365180;22;20002;-73
2020/12/21 12:34:02;;;;;;;5.03;1.60;;;29.40;53.10;;;;;;6365927;22;20021;-74
2020/12/21 12:36:30;;;;;;;3.72;1.67;;;29.40;53.20;;;;;;6364912;22;20002;-74
2020/12/21 12:38:57;;;;;;;4.57;1.83;;;29.30;53.20;;;;;;6366159;22;20383;-73
2020/12/21 12:41:24;;;;;;;8.57;4.47;;;29.40;53.10;;;;;;6363912;22;19998;-73
2020/12/21 12:43:51;;;;;;;2.65;1.52;;;29.50;53.10;;;;;;6364685;22;20092;-74
2020/12/21 12:46:18;;;;;;;5.53;1.38;;;29.50;53.00;;;;;;6366506;22;20564;-74
2020/12/21 12:48:45;;;;;;;4.53;1.42;;;29.50;52.90;;;;;;6365134;22;20002;-73
2020/12/21 12:51:17;;;;;;;4.28;1.83;;;29.60;52.90;;;;;;6365843;22;20010;-74
2020/12/21 12:53:44;;;;;;;3.60;1.58;;;29.70;52.70;;;;;;6364777;22;20496;-73
2020/12/21 12:56:11;;;;;;;4.90;1.52;;;29.70;52.50;;;;;;6338335;22;20003;-73
2020/12/21 12:58:40;;;;;;;4.47;1.33;;;29.80;52.40;;;;;;6365572;22;20002;-72
2020/12/21 13:01:07;;;;;;;6.47;1.38;;;29.80;52.40;;;;;;6364588;22;20001;-73
2020/12/21 13:03:34;;;;;;;7.10;1.85;;;29.80;52.50;;;;;;6368211;22;19998;-73
2020/12/21 13:06:40;;;;;;;5.88;1.40;;;29.70;52.60;;;;;;6360239;22;19998;-73
2020/12/21 13:09:06;;;;;;;8.10;1.95;;;29.70;52.50;;;;;;6367482;22;20021;-73
2020/12/21 13:11:33;;;;;;;4.97;1.95;;;29.80;52.60;;;;;;6365548;22;20509;-73
2020/12/21 13:13:59;;;;;;;4.97;1.90;;;29.80;52.50;;;;;;6366215;22;20518;-73
2020/12/21 13:16:26;;;;;;;8.30;2.47;;;29.80;52.40;;;;;;6367622;22;20454;-73
2020/12/21 13:18:52;;;;;;;7.38;2.33;;;29.90;52.40;;;;;;6336895;22;20479;-73
2020/12/21 13:21:20;;;;;;;10.88;6.05;;;30.00;52.40;;;;;;6366122;22;20175;-75
2020/12/21 13:23:47;;;;;;;12.82;5.07;;;29.90;52.10;;;;;;6365552;22;20081;-71
2020/12/21 13:26:54;;;;;;;13.00;4.63;;;29.90;51.90;;;;;;6366548;22;20075;-74
2020/12/21 13:30:00;;;;;;;12.25;3.38;;;30.00;51.90;;;;;;6365746;22;20006;-76
2020/12/21 13:33:06;;;;;;;8.57;3.22;;;30.00;51.60;;;;;;6366516;22;20326;-72
2020/12/21 13:36:12;;;;;;;11.25;3.20;;;30.00;51.70;;;;;;6366925;22;20030;-73
2020/12/21 13:39:18;;;;;;;12.18;2.63;;;30.00;51.30;;;;;;6367142;22;20001;-73
2020/12/21 13:42:24;;;;;;;12.85;3.25;;;30.00;51.20;;;;;;6366681;22;20074;-72
2020/12/21 13:45:30;;;;;;;6.30;2.13;;;30.00;51.10;;;;;;6365641;22;20074;-72
2020/12/21 13:48:36;;;;;;;4.15;2.10;;;30.10;51.10;;;;;;6367421;22;20445;-72
2020/12/21 13:51:48;;;;;;;6.35;2.03;;;30.10;50.90;;;;;;6367108;22;20021;-72
2020/12/21 13:54:54;;;;;;;5.65;1.92;;;30.20;50.80;;;;;;6365982;22;20010;-72
2020/12/21 13:58:00;;;;;;;11.23;2.42;;;30.30;50.80;;;;;;6366298;22;20546;-72
2020/12/21 14:01:06;;;;;;;8.95;2.50;;;30.30;50.70;;;;;;6339020;22;20341;-73
2020/12/21 14:04:12;;;;;;;16.23;3.83;;;30.30;50.50;;;;;;6366888;22;20022;-73
2020/12/21 14:07:18;;;;;;;9.30;2.50;;;30.30;50.30;;;;;;6365554;22;20043;-73
2020/12/21 14:10:25;;;;;;;8.77;2.22;;;30.30;50.50;;;;;;6366674;22;20001;-73
2020/12/21 14:13:31;;;;;;;13.88;2.72;;;30.30;50.70;;;;;;6366844;22;19998;-72
2020/12/21 14:16:37;;;;;;;10.23;3.10;;;30.30;50.80;;;;;;6337756;22;20036;-73
2020/12/21 14:19:43;;;;;;;6.82;2.88;;;30.30;50.80;;;;;;6366273;22;20069;-72